createdAt,value
2023-04-03T00:00:31.835Z,1.38
2023-04-03T00:02:58.194Z,1.26
2023-04-03T00:05:24.099Z,1.35
2023-04-03T00:07:50.370Z,1.29
2023-04-03T00:10:16.552Z,1.25
2023-04-03T00:12:42.558Z,1.21
2023-04-03T00:15:08.976Z,1.40
2023-04-03T00:17:35.362Z,1.28
2023-04-03T00:20:01.962Z,1.17
2023-04-03T00:22:28.894Z,1.20
2023-04-03T00:24:55.564Z,1.19
2023-04-03T00:27:21.875Z,1.21
2023-04-03T00:29:47.688Z,1.21
2023-04-03T00:32:14.167Z,1.18
2023-04-03T00:34:39.949Z,1.10
2023-04-03T00:37:06.421Z,1.18
2023-04-03T00:39:32.405Z,1.05
2023-04-03T00:41:58.427Z,1.07
2023-04-03T00:44:33.431Z,1.02
2023-04-03T00:47:00.116Z,1.02
2023-04-03T00:49:27.479Z,1.03
2023-04-03T00:51:54.270Z,0.91
2023-04-03T00:54:20.333Z,1.02
2023-04-03T00:56:46.404Z,0.93
2023-04-03T00:59:17.054Z,0.99
2023-04-03T01:01:46.371Z,1.00
2023-04-03T01:04:28.835Z,0.97
2023-04-03T01:06:57.665Z,1.02
2023-04-03T01:09:23.607Z,0.90
2023-04-03T01:11:49.707Z,0.90
2023-04-03T01:14:15.574Z,0.92
2023-04-03T01:16:41.375Z,1.03
2023-04-03T01:19:14.853Z,0.92
2023-04-03T01:21:49.417Z,0.94
2023-04-03T01:24:33.110Z,0.94
2023-04-03T01:27:00.578Z,0.88
2023-04-03T01:29:27.068Z,0.89
2023-04-03T01:32:11.299Z,0.96
2023-04-03T01:34:37.144Z,0.85
2023-04-03T01:37:02.969Z,0.66
2023-04-03T01:39:28.785Z,0.65
2023-04-03T01:41:54.895Z,0.69
2023-04-03T01:44:20.901Z,0.66
2023-04-03T01:46:47.657Z,0.74
2023-04-03T01:49:13.576Z,0.78
2023-04-03T01:51:39.523Z,0.76
2023-04-03T01:54:05.500Z,0.72
2023-04-03T01:56:31.324Z,0.61
2023-04-03T01:58:57.119Z,0.51
2023-04-03T02:01:23.649Z,0.53
2023-04-03T02:03:49.857Z,0.53
2023-04-03T02:06:15.811Z,0.58
2023-04-03T02:08:42.119Z,0.57
2023-04-03T02:11:07.997Z,0.65
2023-04-03T02:13:33.838Z,0.66
2023-04-03T02:15:59.678Z,0.61
2023-04-03T02:18:25.464Z,0.51
2023-04-03T02:20:51.283Z,0.49
2023-04-03T02:23:17.090Z,0.46
2023-04-03T02:25:42.899Z,0.44
2023-04-03T02:28:08.733Z,0.26
2023-04-03T02:30:35.034Z,0.38
2023-04-03T02:33:01.264Z,0.44
2023-04-03T02:35:27.301Z,0.47
2023-04-03T02:37:53.215Z,0.37
2023-04-03T02:40:19.215Z,0.49
2023-04-03T02:42:45.421Z,0.35
2023-04-03T02:45:11.381Z,0.36
2023-04-03T02:47:37.242Z,0.23
2023-04-03T02:50:03.274Z,0.14
2023-04-03T02:52:29.088Z,0.20
2023-04-03T02:54:54.974Z,0.04
2023-04-03T02:57:20.894Z,0.03
2023-04-03T02:59:46.779Z,0.01
2023-04-03T03:02:12.623Z,0.14
2023-04-03T03:04:38.556Z,0.13
2023-04-03T03:07:04.718Z,0.19
2023-04-03T03:09:30.510Z,0.04
2023-04-03T03:11:57.261Z,0.17
2023-04-03T03:14:23.625Z,0.04
2023-04-03T03:16:49.794Z,0.05
2023-04-03T03:19:16.212Z,-0.05
2023-04-03T03:21:42.050Z,-0.02
2023-04-03T03:24:08.148Z,0.05
2023-04-03T03:26:34.170Z,0.15
2023-04-03T03:29:00.114Z,0.19
2023-04-03T03:31:26.022Z,0.11
2023-04-03T03:33:51.950Z,0.18
2023-04-03T03:36:17.808Z,0.13
2023-04-03T03:38:43.780Z,0.14
2023-04-03T03:41:09.872Z,-0.02
2023-04-03T03:43:35.691Z,-0.15
2023-04-03T03:46:01.565Z,-0.17
2023-04-03T03:48:27.481Z,-0.11
2023-04-03T03:50:53.289Z,-0.12
2023-04-03T03:53:19.606Z,-0.21
2023-04-03T03:55:45.506Z,-0.16
2023-04-03T03:58:11.332Z,-0.16
2023-04-03T04:00:37.290Z,-0.28
2023-04-03T04:03:03.667Z,-0.29
2023-04-03T04:05:29.681Z,-0.45
2023-04-03T04:07:55.478Z,-0.52
2023-04-03T04:10:21.391Z,-0.42
2023-04-03T04:12:49.295Z,-0.40
2023-04-03T04:15:15.151Z,-0.42
2023-04-03T04:17:40.992Z,-0.34
2023-04-03T04:20:07.277Z,-0.43
2023-04-03T04:22:33.158Z,-0.40
2023-04-03T04:24:59.056Z,-0.38
2023-04-03T04:27:24.928Z,-0.49
2023-04-03T04:29:50.789Z,-0.34
2023-04-03T04:32:16.669Z,-0.38
2023-04-03T04:34:42.549Z,-0.49
2023-04-03T04:37:08.451Z,-0.61
2023-04-03T04:39:35.107Z,-0.50
2023-04-03T04:42:00.932Z,-0.44
2023-04-03T04:44:26.675Z,-0.36
2023-04-03T04:46:52.535Z,-0.44
2023-04-03T04:49:18.392Z,-0.44
2023-04-03T04:51:51.674Z,-0.58
2023-04-03T04:54:18.719Z,-0.61
2023-04-03T04:56:44.593Z,-0.77
2023-04-03T04:59:10.546Z,-0.70
2023-04-03T05:01:36.337Z,-0.51
2023-04-03T05:04:02.323Z,-0.59
2023-04-03T05:06:30.395Z,-0.56
2023-04-03T05:08:56.461Z,-0.61
2023-04-03T05:11:22.254Z,-0.57
2023-04-03T05:13:51.316Z,-0.58
2023-04-03T05:16:17.312Z,-0.66
2023-04-03T05:18:43.160Z,-0.58
2023-04-03T05:21:09.153Z,-0.54
2023-04-03T05:23:35.103Z,-0.67
2023-04-03T05:26:00.855Z,-0.61
2023-04-03T05:28:26.863Z,-0.60
2023-04-03T05:30:58.013Z,-0.59
2023-04-03T05:33:25.079Z,-0.76
2023-04-03T05:35:50.985Z,-0.60
2023-04-03T05:38:16.921Z,-0.52
2023-04-03T05:40:42.878Z,-0.67
2023-04-03T05:43:08.809Z,-0.57
2023-04-03T05:45:34.865Z,-0.57
2023-04-03T05:48:00.746Z,-0.50
2023-04-03T05:50:26.620Z,-0.42
2023-04-03T05:52:56.865Z,-0.37
2023-04-03T05:55:22.650Z,-0.43
2023-04-03T05:57:48.560Z,-0.43
2023-04-03T06:00:15.880Z,-0.35
2023-04-03T06:02:42.253Z,-0.32
2023-04-03T06:05:09.714Z,-0.27
2023-04-03T06:07:36.143Z,-0.25
2023-04-03T06:10:02.735Z,-0.44
2023-04-03T06:12:31.746Z,-0.40
2023-04-03T06:14:57.621Z,-0.38
2023-04-03T06:17:24.024Z,-0.29
2023-04-03T06:19:49.842Z,-0.14
2023-04-03T06:22:15.935Z,-0.17
2023-04-03T06:24:41.906Z,-0.15
2023-04-03T06:27:08.146Z,-0.12
2023-04-03T06:29:33.997Z,-0.03
2023-04-03T06:31:59.788Z,-0.02
2023-04-03T06:34:26.071Z,-0.01
2023-04-03T06:36:51.823Z,-0.11
2023-04-03T06:39:23.035Z,-0.23
2023-04-03T06:41:49.536Z,-0.25
2023-04-03T06:44:16.415Z,-0.31
2023-04-03T06:46:44.063Z,-0.18
2023-04-03T06:49:10.601Z,-0.09
2023-04-03T06:51:36.814Z,0.08
2023-04-03T06:54:04.286Z,0.13
2023-04-03T06:56:30.979Z,0.18
2023-04-03T06:59:00.129Z,0.13
2023-04-03T07:01:30.165Z,0.24
2023-04-03T07:03:56.542Z,0.15
2023-04-03T07:06:23.018Z,0.21
2023-04-03T07:08:49.429Z,0.16
2023-04-03T07:11:16.214Z,0.09
2023-04-03T07:13:42.194Z,0.22
2023-04-03T07:16:08.732Z,0.22
2023-04-03T07:18:35.000Z,0.44
2023-04-03T07:21:01.417Z,0.27
2023-04-03T07:23:27.740Z,0.23
2023-04-03T07:25:53.955Z,0.35
2023-04-03T07:28:21.007Z,0.38
2023-04-03T07:30:55.344Z,0.43
2023-04-03T07:33:23.156Z,0.46
2023-04-03T07:35:49.972Z,0.55
2023-04-03T07:38:16.473Z,0.62
2023-04-03T07:40:47.700Z,0.71
2023-04-03T07:43:14.271Z,0.72
2023-04-03T07:45:40.362Z,0.70
2023-04-03T07:48:06.666Z,0.76
2023-04-03T07:50:32.669Z,0.85
2023-04-03T07:52:59.169Z,1.05
2023-04-03T07:55:25.788Z,1.04
2023-04-03T07:57:51.775Z,1.14
2023-04-03T08:00:18.155Z,1.11
2023-04-03T08:02:44.925Z,1.22
2023-04-03T08:05:11.792Z,1.27
2023-04-03T08:07:38.492Z,1.36
2023-04-03T08:10:05.008Z,1.31
2023-04-03T08:12:32.253Z,1.29
2023-04-03T08:15:01.479Z,1.30
2023-04-03T08:17:27.488Z,1.36
2023-04-03T08:19:53.365Z,1.47
2023-04-03T08:22:19.664Z,1.54
2023-04-03T08:24:56.159Z,1.50
2023-04-03T08:27:24.886Z,1.62
2023-04-03T08:29:51.665Z,1.68
2023-04-03T08:32:18.267Z,1.84
2023-04-03T08:34:44.315Z,1.88
2023-04-03T08:37:10.336Z,1.90
2023-04-03T08:39:36.283Z,1.85
2023-04-03T08:42:14.261Z,1.93
2023-04-03T08:45:03.570Z,1.94
2023-04-03T08:47:41.021Z,2.09
2023-04-03T08:50:21.279Z,2.26
2023-04-03T08:53:11.504Z,2.24
2023-04-03T08:55:45.663Z,2.23
2023-04-03T08:58:16.759Z,2.35
2023-04-03T09:00:50.168Z,2.40
2023-04-03T09:03:20.061Z,2.40
2023-04-03T09:05:55.582Z,2.58
2023-04-03T09:08:26.267Z,2.55
2023-04-03T09:11:28.125Z,2.70
2023-04-03T09:14:01.812Z,2.61
2023-04-03T09:16:30.507Z,2.62
2023-04-03T09:19:13.864Z,2.88
2023-04-03T09:21:42.797Z,2.86
2023-04-03T09:24:12.381Z,2.82
2023-04-03T09:26:46.717Z,2.93
2023-04-03T09:29:21.796Z,3.04
2023-04-03T09:31:50.739Z,2.97
2023-04-03T09:34:43.465Z,2.86
2023-04-03T09:37:09.564Z,2.94
2023-04-03T09:39:56.601Z,3.10
2023-04-03T09:42:24.408Z,3.15
2023-04-03T09:44:58.447Z,3.25
2023-04-03T09:47:36.569Z,3.38
2023-04-03T09:50:14.647Z,3.48
2023-04-03T09:52:46.381Z,3.59
2023-04-03T09:55:15.576Z,3.76
2023-04-03T09:57:41.476Z,3.76
2023-04-03T10:00:21.930Z,3.70
2023-04-03T10:02:53.066Z,3.98
2023-04-03T10:05:33.487Z,4.09
2023-04-03T10:08:14.334Z,4.17
2023-04-03T10:10:45.933Z,4.52
2023-04-03T10:13:21.774Z,4.41
2023-04-03T10:15:52.987Z,4.83
2023-04-03T10:18:46.211Z,4.97
2023-04-03T10:21:27.127Z,5.19
2023-04-03T10:24:10.377Z,5.19
2023-04-03T10:26:45.461Z,5.76
2023-04-03T10:29:32.828Z,6.13
2023-04-03T10:32:16.043Z,6.52
2023-04-03T10:34:51.642Z,6.82
2023-04-03T10:37:37.045Z,6.80
2023-04-03T10:40:31.510Z,7.10
2023-04-03T10:43:06.746Z,7.06
2023-04-03T10:45:50.800Z,7.54
2023-04-03T10:48:22.652Z,7.92
2023-04-03T10:51:07.414Z,8.26
2023-04-03T10:54:01.217Z,8.80
2023-04-03T10:56:32.047Z,8.78
2023-04-03T10:59:14.269Z,8.95
2023-04-03T11:01:44.456Z,9.25
2023-04-03T11:04:12.979Z,9.68
2023-04-03T11:06:58.327Z,9.53
2023-04-03T11:09:28.423Z,9.28
2023-04-03T11:12:10.852Z,9.68
2023-04-03T11:14:38.571Z,9.88
2023-04-03T11:17:04.372Z,10.51
2023-04-03T11:20:12.269Z,10.65
2023-04-03T11:22:51.902Z,10.47
2023-04-03T11:25:25.571Z,10.40
2023-04-03T11:27:56.982Z,10.55
2023-04-03T11:30:28.610Z,10.66
2023-04-03T11:33:03.757Z,10.72
2023-04-03T11:35:30.982Z,10.17
2023-04-03T11:38:00.348Z,10.29
2023-04-03T11:40:31.123Z,9.88
2023-04-03T11:42:59.920Z,9.51
2023-04-03T11:45:33.021Z,9.60
2023-04-03T11:48:28.521Z,9.52
2023-04-03T11:50:55.806Z,9.38
2023-04-03T11:53:29.594Z,9.57
2023-04-03T11:56:01.000Z,10.22
2023-04-03T11:58:35.195Z,10.53
2023-04-03T12:01:08.260Z,11.00
2023-04-03T12:03:58.074Z,11.40
2023-04-03T12:06:33.103Z,11.38
2023-04-03T12:08:59.082Z,11.59
2023-04-03T12:11:33.322Z,11.36
2023-04-03T12:13:59.057Z,11.12
2023-04-03T12:16:32.667Z,11.55
2023-04-03T12:19:04.456Z,11.63
2023-04-03T12:21:30.425Z,11.68
2023-04-03T12:24:08.341Z,12.12
2023-04-03T12:26:56.259Z,11.59
2023-04-03T12:29:28.920Z,11.66
2023-04-03T12:32:04.108Z,12.03
2023-04-03T12:35:07.727Z,11.87
2023-04-03T12:37:58.892Z,11.72
2023-04-03T12:40:48.557Z,11.74
2023-04-03T12:43:23.675Z,11.82
2023-04-03T12:46:00.416Z,11.26
2023-04-03T12:48:29.740Z,11.22
2023-04-03T12:50:57.708Z,11.47
2023-04-03T12:53:36.367Z,11.57
2023-04-03T12:56:24.543Z,11.75
2023-04-03T12:58:53.336Z,11.75
2023-04-03T13:01:23.685Z,11.55
2023-04-03T13:03:57.388Z,11.58
2023-04-03T13:06:28.307Z,11.77
2023-04-03T13:08:57.521Z,12.13
2023-04-03T13:11:27.363Z,12.14
2023-04-03T13:14:06.167Z,12.04
2023-04-03T13:16:33.718Z,12.81
2023-04-03T13:19:00.253Z,12.21
2023-04-03T13:21:28.214Z,11.93
2023-04-03T13:24:11.490Z,11.75
2023-04-03T13:26:38.568Z,11.51
2023-04-03T13:29:09.439Z,11.55
2023-04-03T13:31:39.391Z,11.39
2023-04-03T13:34:14.283Z,11.18
2023-04-03T13:36:58.116Z,11.07
2023-04-03T13:39:32.582Z,11.10
2023-04-03T13:42:03.737Z,11.29
2023-04-03T13:44:33.760Z,11.85
2023-04-03T13:47:21.405Z,11.32
2023-04-03T13:50:15.515Z,11.32
2023-04-03T13:52:45.755Z,11.56
2023-04-03T13:55:25.955Z,11.07
2023-04-03T13:58:23.544Z,11.13
2023-04-03T14:01:21.246Z,11.56
2023-04-03T14:03:59.987Z,10.61
2023-04-03T14:06:27.760Z,10.85
2023-04-03T14:08:53.874Z,10.77
2023-04-03T14:11:29.711Z,10.76
2023-04-03T14:14:00.638Z,10.00
2023-04-03T14:16:30.064Z,9.98
2023-04-03T14:18:56.068Z,9.89
2023-04-03T14:21:21.972Z,9.66
2023-04-03T14:23:48.663Z,9.81
2023-04-03T14:26:23.673Z,10.42
2023-04-03T14:28:53.570Z,10.88
2023-04-03T14:31:21.280Z,10.69
2023-04-03T14:33:47.806Z,10.43
2023-04-03T14:36:33.291Z,10.90
2023-04-03T14:39:01.078Z,10.07
2023-04-03T14:41:27.504Z,10.15
2023-04-03T14:43:53.908Z,10.33
2023-04-03T14:46:38.619Z,10.70
2023-04-03T14:49:21.582Z,10.37
2023-04-03T14:51:47.855Z,10.62
2023-04-03T14:54:19.088Z,10.64
2023-04-03T14:56:45.695Z,10.00
2023-04-03T14:59:13.392Z,10.48
2023-04-03T15:01:39.609Z,10.72
2023-04-03T15:04:12.296Z,10.33
2023-04-03T15:06:38.327Z,9.76
2023-04-03T15:09:04.204Z,9.84
2023-04-03T15:11:30.234Z,9.70
2023-04-03T15:13:56.105Z,9.64
2023-04-03T15:16:30.258Z,9.41
2023-04-03T15:18:56.148Z,9.30
2023-04-03T15:21:22.140Z,9.05
2023-04-03T15:23:48.002Z,8.97
2023-04-03T15:26:14.003Z,8.73
2023-04-03T15:28:42.327Z,8.92
2023-04-03T15:31:08.758Z,9.26
2023-04-03T15:33:36.290Z,9.47
2023-04-03T15:36:07.100Z,9.55
2023-04-03T15:38:34.431Z,9.53
2023-04-03T15:41:00.839Z,9.21
2023-04-03T15:43:26.734Z,8.84
2023-04-03T15:45:52.961Z,9.01
2023-04-03T15:48:18.895Z,8.82
2023-04-03T15:50:44.839Z,9.31
2023-04-03T15:53:10.822Z,9.66
2023-04-03T15:55:38.251Z,9.38
2023-04-03T15:58:04.862Z,9.35
2023-04-03T16:00:32.219Z,8.71
2023-04-03T16:03:06.495Z,8.74
2023-04-03T16:05:33.290Z,9.04
2023-04-03T16:08:00.644Z,9.19
2023-04-03T16:10:27.539Z,9.28
2023-04-03T16:12:53.549Z,8.94
2023-04-03T16:15:19.503Z,8.79
2023-04-03T16:17:45.947Z,8.77
2023-04-03T16:20:13.380Z,8.79
2023-04-03T16:22:40.307Z,8.66
2023-04-03T16:25:07.695Z,8.00
2023-04-03T16:27:34.244Z,8.16
2023-04-03T16:30:00.522Z,7.69
2023-04-03T16:32:29.616Z,7.35
2023-04-03T16:34:56.276Z,7.40
2023-04-03T16:37:22.290Z,7.08
2023-04-03T16:39:48.200Z,6.81
2023-04-03T16:42:14.122Z,6.86
2023-04-03T16:44:40.304Z,6.80
2023-04-03T16:47:08.123Z,6.98
2023-04-03T16:49:35.293Z,6.64
2023-04-03T16:52:03.189Z,6.77
2023-04-03T16:54:29.716Z,6.55
2023-04-03T16:56:55.765Z,6.35
2023-04-03T16:59:21.730Z,6.02
2023-04-03T17:01:47.635Z,6.19
2023-04-03T17:04:13.581Z,6.23
2023-04-03T17:06:40.101Z,5.99
2023-04-03T17:09:07.163Z,6.00
2023-04-03T17:13:59.816Z,5.72
2023-04-03T17:16:28.397Z,5.84
2023-04-03T17:18:57.900Z,5.71
2023-04-03T17:21:26.657Z,5.51
2023-04-03T17:24:00.936Z,5.60
2023-04-03T17:26:28.325Z,5.53
2023-04-03T17:28:54.163Z,5.53
2023-04-03T17:31:20.603Z,5.46
2023-04-03T17:33:46.537Z,5.36
2023-04-03T17:36:12.578Z,5.46
2023-04-03T17:38:38.831Z,5.34
2023-04-03T17:41:07.302Z,5.32
2023-04-03T17:43:34.173Z,5.18
2023-04-03T17:46:06.313Z,5.10
2023-04-03T17:48:33.857Z,5.17
2023-04-03T17:51:07.330Z,5.02
2023-04-03T17:53:33.270Z,4.82
2023-04-03T17:56:04.862Z,4.77
2023-04-03T17:58:30.819Z,4.84
2023-04-03T18:00:57.235Z,4.73
2023-04-03T18:03:23.158Z,4.74
2023-04-03T18:05:50.191Z,4.83
2023-04-03T18:08:16.670Z,4.48
2023-04-03T18:10:42.711Z,4.45
2023-04-03T18:13:09.061Z,4.29
2023-04-03T18:15:35.053Z,4.35
2023-04-03T18:18:00.995Z,4.09
2023-04-03T18:20:26.980Z,4.02
2023-04-03T18:22:52.953Z,4.11
2023-04-03T18:25:19.148Z,4.06
2023-04-03T18:27:46.505Z,4.06
2023-04-03T18:30:15.837Z,3.92
2023-04-03T18:32:42.432Z,4.22
2023-04-03T18:35:08.664Z,4.13
2023-04-03T18:37:34.731Z,4.00
2023-04-03T18:40:00.718Z,4.05
2023-04-03T18:42:27.000Z,3.90
2023-04-03T18:44:57.852Z,3.72
2023-04-03T18:47:24.090Z,3.62
2023-04-03T18:49:50.014Z,3.56
2023-04-03T18:52:16.104Z,3.49
2023-04-03T18:54:42.607Z,3.35
2023-04-03T18:57:08.532Z,3.32
2023-04-03T18:59:34.525Z,3.25
2023-04-03T19:02:01.141Z,3.17
2023-04-03T19:04:28.227Z,3.07
2023-04-03T19:06:54.482Z,3.14
2023-04-03T19:09:20.858Z,3.17
2023-04-03T19:11:46.735Z,3.04
2023-04-03T19:14:16.627Z,2.96
2023-04-03T19:16:43.925Z,3.00
2023-04-03T19:19:11.914Z,2.88
2023-04-03T19:21:40.321Z,2.98
2023-04-03T19:24:11.410Z,3.03
2023-04-03T19:26:38.264Z,3.08
2023-04-03T19:29:05.033Z,3.09
2023-04-03T19:31:32.757Z,3.07
2023-04-03T19:33:59.828Z,3.11
2023-04-03T19:36:25.918Z,3.12
2023-04-03T19:38:52.804Z,3.13
2023-04-03T19:41:23.837Z,2.94
2023-04-03T19:43:52.227Z,2.66
2023-04-03T19:46:18.573Z,2.63
2023-04-03T19:48:46.609Z,2.72
2023-04-03T19:51:13.192Z,2.79
2023-04-03T19:53:39.086Z,2.80
2023-04-03T19:56:05.072Z,2.74
2023-04-03T19:58:33.968Z,2.74
2023-04-03T20:01:02.380Z,2.72
2023-04-03T20:03:29.875Z,2.66
2023-04-03T20:05:58.327Z,2.57
2023-04-03T20:08:27.677Z,2.62
2023-04-03T20:10:55.240Z,2.61
2023-04-03T20:13:21.724Z,2.68
2023-04-03T20:15:47.630Z,2.48
2023-04-03T20:18:19.619Z,2.50
2023-04-03T20:21:01.035Z,2.46
2023-04-03T20:23:28.425Z,2.44
2023-04-03T20:26:08.461Z,2.52
2023-04-03T20:28:35.713Z,2.38
2023-04-03T20:31:01.761Z,2.45
2023-04-03T20:33:28.002Z,2.31
2023-04-03T20:35:57.831Z,2.18
2023-04-03T20:38:24.729Z,2.25
2023-04-03T20:40:51.452Z,2.31
2023-04-03T20:43:17.312Z,2.30
2023-04-03T20:45:43.332Z,2.34
2023-04-03T20:48:12.258Z,2.22
2023-04-03T20:50:38.726Z,2.24
2023-04-03T20:53:04.785Z,2.17
2023-04-03T20:55:30.650Z,2.21
2023-04-03T20:58:00.641Z,2.16
2023-04-03T21:00:28.198Z,2.00
2023-04-03T21:02:56.292Z,2.02
2023-04-03T21:05:25.257Z,2.01
2023-04-03T21:08:29.068Z,2.00
2023-04-03T21:11:32.266Z,1.97
2023-04-03T21:14:36.145Z,1.85
2023-04-03T21:17:01.838Z,1.96
2023-04-03T21:19:27.753Z,1.93
2023-04-03T21:21:54.278Z,1.93
2023-04-03T21:24:20.312Z,1.87
2023-04-03T21:26:46.482Z,1.96
2023-04-03T21:29:13.567Z,1.86
2023-04-03T21:31:57.623Z,1.88
2023-04-03T21:34:28.506Z,1.75
2023-04-03T21:36:55.389Z,1.78
2023-04-03T21:39:22.323Z,1.84
2023-04-03T21:41:54.082Z,1.87
2023-04-03T21:44:20.221Z,1.78
2023-04-03T21:46:47.158Z,1.83
2023-04-03T21:49:13.472Z,1.72
2023-04-03T21:51:39.439Z,1.72
2023-04-03T21:54:05.374Z,1.70
2023-04-03T21:56:31.218Z,1.66
2023-04-03T21:58:59.862Z,1.63
2023-04-03T22:01:25.726Z,1.53
2023-04-03T22:03:51.572Z,1.51
2023-04-03T22:06:17.545Z,1.36
2023-04-03T22:08:43.830Z,1.43
2023-04-03T22:11:12.714Z,1.43
2023-04-03T22:13:38.727Z,1.42
2023-04-03T22:16:05.314Z,1.42
2023-04-03T22:18:31.942Z,1.37
2023-04-03T22:20:58.236Z,1.26
2023-04-03T22:23:25.411Z,1.16
2023-04-03T22:26:07.818Z,1.22
2023-04-03T22:28:40.439Z,1.23
2023-04-03T22:31:07.150Z,1.18
2023-04-03T22:33:35.700Z,1.08
2023-04-03T22:36:03.451Z,1.21
2023-04-03T22:38:29.604Z,1.05
2023-04-03T22:40:59.856Z,1.12
2023-04-03T22:43:27.189Z,1.40
2023-04-03T22:45:53.230Z,1.23
2023-04-03T22:48:19.299Z,1.07
2023-04-03T22:50:46.240Z,1.19
2023-04-03T22:53:12.426Z,1.16
2023-04-03T22:55:38.315Z,1.17
2023-04-03T22:58:05.012Z,1.12
2023-04-03T23:00:31.303Z,1.08
2023-04-03T23:03:00.958Z,0.99
2023-04-03T23:05:27.886Z,1.09
2023-04-03T23:07:53.844Z,1.13
2023-04-03T23:10:20.970Z,0.97
2023-04-03T23:12:46.776Z,1.01
2023-04-03T23:15:16.880Z,0.93
2023-04-03T23:17:42.789Z,0.95
2023-04-03T23:20:09.067Z,0.91
2023-04-03T23:22:35.580Z,0.85
2023-04-03T23:25:01.432Z,0.90
2023-04-03T23:27:27.517Z,0.93
2023-04-03T23:29:53.335Z,0.75
2023-04-03T23:32:19.229Z,0.78
2023-04-03T23:34:45.260Z,0.76
2023-04-03T23:37:12.083Z,0.66
2023-04-03T23:39:37.960Z,0.65
2023-04-03T23:42:08.338Z,0.72
2023-04-03T23:44:34.337Z,0.72
2023-04-03T23:47:00.570Z,0.69
2023-04-03T23:49:27.005Z,0.62
2023-04-03T23:51:53.523Z,0.49
2023-04-03T23:54:20.008Z,0.41
2023-04-03T23:56:45.776Z,0.52
2023-04-03T23:59:11.631Z,0.51
